17 sierpnia 2022

Czas Kod Pogoda Temp. Widoczność Sufit Wiatr METAR/SPECI
12:30
V
25 °C 10 km+ - 350° 350° 13 kt METAR HUEN 170930Z 35013KT 9999 FEW025 FEW027CB 25/19 Q10187.5 A30.04 886.1 26.16 NOSIG
12:00
V
24 °C 10 km+ - 340° 340° 14 kt METAR HUEN 170900Z 34014KT 9999 FEW024 FEW026CB 24/19 Q1018.0 A30.06 886.5 26.18 NOSIG
11:30
V
22 °C 10 km+ - 300° 300° 13 kt METAR HUEN 170830Z 30013KT 9999 FEW024 FEW026CB 22/19 Q1018.4 A30.07 886.9 26.19 NOSIG
11:00
V
22 °C 10 km+ - 360° 360° 14 kt METAR HUEN 170800Z 36014KT 9999 SCT024 FEW026CB 22/19 Q1018.9 A30.09 887.4 26.20 NOSIG
10:30
V
22 °C 10 km+ - 350° 350° 10 kt METAR HUEN 170730Z 35010KT 9999 SCT024 FEW026CB 22/19 Q1019.1 A30.09 887.5 26.21
10:00
V
21 °C 10 km+ - 360° 360° 9 kt METAR HUEN 170700Z 36009KT 9999 FEW024 FEW026CB 21/18 Q1019.5 A30.10 887.9 26.22
09:30
V
21 °C 9 km - 350° 350° 8 kt METAR HUEN 170630Z 35008KT 9000 FEW024 FEW026CB 21/18 Q1019.2 A30.09 887.6 26.21 NOSIG
09:00
V
20 °C 9 km - 040° 040° 6 kt METAR HUEN 170600Z 04006KT 9000 FEW024 FEW026CB 20/19 Q1018.7 A30.08 887.2 26.20 NOSIG
08:30
V
20 °C 9 km - 040° 040° 6 kt METAR HUEN 170530Z 04006KT 9000 FEW024 FEW027CB 20/19 Q1018
08:00
V
20 °C 9 km - 030° 030° 7 kt METAR HUEN 170500Z 03007KT 9000 FEW024 FEW027CB 20/19 Q1017
07:30
V
20 °C 9 km - 020° 020° 8 kt METAR HUEN 170430Z 02008KT 9000 FEW024 FEW027CB 20/18 Q1017
07:00
V
20 °C 9 km - 360° 360° 8 kt METAR HUEN 170400Z 36008KT 9000 FEW024 FEW026CB 20/19 Q1016
06:30
V
19 °C 10 km+ - 360° 360° 7 kt METAR HUEN 170330Z 36007KT 9999 SCT024 FEW026CB 19/18 Q1016
06:00
V
20 °C 10 km+ - 360° 360° 7 kt METAR HUEN 170300Z 36007KT 9999 SCT024 FEW026CB 20/18 Q1016
05:30
V
20 °C 10 km+ - 360° 360° 7 kt METAR HUEN 170230Z 36007KT 9999 SCT024 FEW026CB 20/18 Q1016
05:00
V
20 °C 10 km+ - 340° 340° 6 kt METAR HUEN 170200Z 34006KT 9999 SCT024 FEW026CB 20/18 Q1016
04:00
V
20 °C 10 km+ - 010° 010° 5 kt METAR HUEN 170100Z 01005KT 9999 -DZ SCT024 FEW026CB 20/18 Q1016
03:30
V
20 °C 10 km+ - 310° 310° 6 kt METAR HUEN 170030Z 31006KT 9999 -DZ SCT023 FEW026CB 20/18 Q1016
03:00
V
20 °C 10 km+ - 010° 010° 5 kt METAR HUEN 170000Z 01005KT 9999 FEW024 FEW026CB 20/16 Q1015
02:30
V
20 °C 10 km+ - 030° 030° 7 kt METAR HUEN 162330Z 03007KT 9999 FEW024 FEW026CB 20/16 Q1016
02:00
V
20 °C 10 km+ - 360° 360° 5 kt METAR HUEN 162300Z 36005KT 9999 FEW024 FEW026CB 20/16 Q1016
01:30
V
20 °C 10 km+ - 110° 110° 6 kt METAR HUEN 162230Z 11006KT 9999 FEW024 FEW026CB 20/17 Q1016
01:00
V
19 °C 10 km+ - 110° 110° 4 kt METAR HUEN 162200Z 11004KT 9999 FEW024 FEW026CB 19/17 Q1017
00:30
V
19 °C 10 km+ - Var 000° 0 kt METAR HUEN 162130Z 3604KT 9999 -DZ SCT024 FEW026CB 19/17 Q1017
00:00
V
20 °C 10 km+ - 360° 360° 4 kt METAR HUEN 162100Z 36004KT 9999 SCT023 FEW025CB 20/17 Q1017

16 sierpnia 2022

Czas Kod Pogoda Temp. Widoczność Sufit Wiatr METAR/SPECI
23:00
V
19 °C 9 km - 360° 360° 10 kt METAR HUEN 162000Z 36010KT 9000 -RA SCT022 19/17 Q1018
22:30
V
20 °C 9 km - 360° 360° 7 kt METAR HUEN 161930Z 36007KT 9000 SCT022 20/18 Q1018
22:00
V
20 °C 9 km - 020° 020° 6 kt METAR HUEN 161900Z 02006KT 9000 SCT022 FEW025CB 20/18 Q1018
21:30
V
20 °C 9 km - 040° 040° 5 kt METAR HUEN 161830Z 04005KT 9000 SCT022 FEW025CB 20/18 Q1018
21:00
V
20 °C 9 km - 360° 360° 8 kt METAR HUEN 161800Z 36008KT 9000 SCT022 FEW025CB 20/18 Q1018
20:00
V
20 °C 9 km - 350° 350° 10 kt METAR HUEN 161700Z 35010KT 9000 DZ SCT022 FEW025CB 20/18 Q1017
19:00
V
21 °C 10 km+ - 340° 340° 8 kt METAR HUEN 161600Z 34008KT 9999 FEW022 FEW025CB 21/18 Q1016
18:30
V
21 °C 10 km+ - 030° 030° 4 kt METAR HUEN 161530Z 03004KT 9999 FEW023 FEW025CB 21/18 Q1016
18:00
V
22 °C 10 km+ - 060° 060° 8 kt METAR HUEN 161500Z 06008KT 9999 FEW023 FEW025CB 22/18 Q1016
17:00
V
22 °C 10 km+ - 100° 100° 13 kt METAR HUEN 161400Z 10013KT 9999 FEW021 FEW023CB 22/19 Q1016
15:00
V
22 °C 10 km+ - 100° 100° 10 kt METAR HUEN 161200Z 10010KT 9999 FEW022 FEW024CB 22/19 Q1017 NOSIG
14:30
V
22 °C 10 km+ - 100° 100° 12 kt METAR HUEN 161130Z 10012KT 9999 FEW022 FEW024CB 22/19 Q1018 NOSIG
14:00
V
23 °C 10 km+ - 090° 090° 11 kt METAR HUEN 161100Z 09011KT 9999 FEW022 FEW024CB 23/19 Q1017 NOSIG
13:00
V
23 °C 10 km+ - 130° 130° 12 kt METAR HUEN 161000Z 13012KT 9999 FEW022 FEW024CB 23/19 Q1018 NOSIG
12:00
V
21 °C 10 km+ - 150° 150° 15 kt METAR HUEN 160900Z 15015KT 9999 FEW022 FEW024CB 21/19 Q1019 BECMG FM0800 TL1000 16010G23KT 9000 TSRA
11:30
V
22 °C 10 km+ - 140° 140° 15 kt METAR HUEN 160830Z 14015KT 9999 FEW022 FEW024CB 22/19 Q1019 BECMG FM0800 TL1000 16010G23KT 9000 TSRA
10:30
V
22 °C 10 km+ - 100° 100° 7 kt METAR HUEN 160730Z 10007KT 9999 FEW022 FEW024CB 22/19 Q1019.5 Q1019 BECMG FM0830 TL1030 9000 -TSRA
10:00
V
23 °C 10 km+ - 080° 080° 5 kt METAR HUEN 160700Z 08005KT 9999 FEW022 FEW024CB 23/19 Q1019.4 A30.10 887.8 26.21
09:00
V
22 °C 10 km+ - 050° 050° 7 kt METAR HUEN 160600 05007KT 9999 FEW021 FEW023CB 22/18 Q1018
08:00
V
20 °C 9 km - 090° 090° 4 kt METAR HUEN 160500 09004KT 9000 FEW021 FEW023CB 20/19 Q1018
07:00
V
19 °C 9 km - 010° 010° 4 kt METAR HUEN 160400 01004KT 9000 FEW020 FEW022CB 19/18 Q1017
06:00
V
20 °C 9 km - 330° 330° 6 kt METAR HUEN 160300 33006KT 9000 FEW020 FEW022CB 20/19 Q1016
05:00
V
20 °C 9 km - 350° 350° 4 kt METAR HUEN 160200 35004KT 9000 FEW020 FEW022CB 20/19 Q1016
04:00
V
20 °C 9 km - 310° 310° 3 kt METAR HUEN 160130 31003KT 9000 FEW019 FEW021CB 20/19 Q1016
02:00
V
20 °C 9 km - 340° 340° 13 kt METAR HUEN 152300 34013KT 9000 FEW019 FEW021CB 20/18 Q1016
01:30
V
20 °C 10 km+ - 360° 360° 9 kt METAR HUEN 152230 36009KT 9999 FEW020 FEW022CB 20/18 Q1016
01:00
V
20 °C 10 km+ - 010° 010° 6 kt METAR HUEN 152200 01006KT 9999 FEW020 FEW022CB 20/18 Q1017
00:00
V
20 °C 10 km+ - 360° 360° 7 kt METAR HUEN 152130 36007KT 9999 FEW020 FEW022CB 20/18 Q1017

15 sierpnia 2022

Czas Kod Pogoda Temp. Widoczność Sufit Wiatr METAR/SPECI
23:00
V
20 °C 10 km+ - 360° 360° 6 kt METAR HUEN 152000 36006KT 9999 FEW019 FEW021CB 20/18 Q1017
22:00
V
20 °C 10 km+ - 330° 330° 5 kt METAR HUEN 151900 33005KT 9999 FEW019 FEW021CB 20/19 Q1017
21:30
V
20 °C 10 km+ - 290° 290° 6 kt METAR HUEN 151830Z 29006KT 9999 FEW019 FEW021CB 20/19 Q1017
21:00
V
20 °C 10 km+ - 310° 310° 5 kt METAR HUEN 151800 31005KT 9999 FEW019 FEW021CB 20/18 Q1017
20:00
V
20 °C 10 km+ - 260° 260° 4 kt METAR HUEN 151700Z 26004KT 9999 SCT019 FEW021CB 20/18 Q1016
19:30
V
20 °C 9 km - 260° 260° 5 kt METAR HUEN 151630Z 26005KT 9000 SCT018 FEW020CB 20/19 Q1016
17:30
M
20 °C 7 km 1.700 ft 090° 090° 6 kt METAR HUEN 151430Z 09006KT 7000 TSRA BKN017 FEW019CB 20/18 Q1016
17:00
M
20 °C 7 km 1.700 ft 340° 340° 6 kt METAR HUEN 151400Z 34006KT 7000 TSRA BKN017 FEW019CB 20/17 Q1015
16:30
M
21 °C 7 km 1.700 ft 300° 300° 15 kt METAR HUEN 151330Z 30015KT 7000 TSRA BKN017 FEW019CB 21/19 Q1015
16:00
I
21 °C 3 km 1.500 ft 050° 050° 10 kt METAR HUEN 151300Z 05010KT 3000 TSRA BKN015 FEW017CB 21/19 Q1015
15:30
M
21 °C 7 km 2.200 ft 330° 330° 15 kt METAR HUEN 151230Z 33015KT 7000 TSRA BKN022 FEW024CB 21/19 Q1015
15:00
M
27 °C 6 km 2.200 ft 100° 100° 15 - 25 kt METAR HUEN 151200Z 10015G25KT 6000 TSRA BKN022 FEW024CB 27/19 Q1015
14:00
V
28 °C 10 km+ - 360° 360° 8 kt METAR HUEN 151100Z 36008KT 9999 SCT024 FEW026CB 28/18 Q1015
13:30
V
28 °C 10 km+ - 360° 360° 8 kt METAR HUEN 151030Z 36008KT 9999 SCT024 FEW026CB 28/18 Q1016
13:00
V
28 °C 10 km+ - 020° 020° 12 kt METAR HUEN 151000Z 02012KT 9999 SCT024 FEW026CB 28/19 Q1017
Starsze dane

My i osoby trzecie śledzimy twoje zachowanie w internecie na naszej stronie za pomocą plików cookie. Jeśli kontynuujesz, zakładamy, że zgadzasz się z naszą polityką plików cookie. Dowiedz się więcej